createdAt,value
2023-04-22T00:03:51.674Z,22.14
2023-04-22T00:08:53.364Z,22.13
2023-04-22T00:13:54.756Z,22.14
2023-04-22T00:18:56.156Z,22.19
2023-04-22T00:23:57.545Z,22.11
2023-04-22T00:28:58.930Z,22.12
2023-04-22T00:34:00.305Z,22.14
2023-04-22T00:39:01.742Z,22.12
2023-04-22T00:44:03.120Z,22.16
2023-04-22T00:49:04.777Z,22.16
2023-04-22T00:54:06.475Z,22.14
2023-04-22T00:59:08.978Z,22.14
2023-04-22T01:04:12.816Z,22.15
2023-04-22T01:09:14.270Z,22.16
2023-04-22T01:14:15.670Z,22.12
2023-04-22T01:19:17.042Z,22.16
2023-04-22T01:24:18.440Z,22.18
2023-04-22T01:29:19.822Z,22.17
2023-04-22T01:34:21.501Z,22.17
2023-04-22T01:39:22.910Z,22.20
2023-04-22T01:44:24.285Z,22.15
2023-04-22T01:49:25.665Z,22.19
2023-04-22T01:54:27.100Z,22.19
2023-04-22T01:59:28.516Z,22.14
2023-04-22T02:04:29.973Z,22.19
2023-04-22T02:09:32.714Z,22.19
2023-04-22T02:14:34.107Z,22.15
2023-04-22T02:19:35.499Z,22.18
2023-04-22T02:24:36.906Z,22.19
2023-04-22T02:29:38.734Z,22.17
2023-04-22T02:34:40.413Z,22.16
2023-04-22T02:39:41.988Z,22.18
2023-04-22T02:44:43.726Z,22.20
2023-04-22T02:49:45.101Z,22.19
2023-04-22T02:54:46.483Z,22.20
2023-04-22T02:59:47.891Z,22.22
2023-04-22T03:04:49.336Z,22.19
2023-04-22T03:09:50.762Z,22.21
2023-04-22T03:14:52.166Z,22.24
2023-04-22T03:19:53.614Z,22.20
2023-04-22T03:24:55.922Z,22.20
2023-04-22T03:29:57.315Z,22.18
2023-04-22T03:34:58.687Z,22.16
2023-04-22T03:40:00.098Z,22.22
2023-04-22T03:45:01.494Z,22.24
2023-04-22T03:50:02.895Z,22.24
2023-04-22T03:55:04.508Z,22.20
2023-04-22T04:00:06.439Z,22.22
2023-04-22T04:05:09.348Z,22.26
2023-04-22T04:10:10.937Z,22.25
2023-04-22T04:15:12.338Z,22.24
2023-04-22T04:20:14.686Z,22.26
2023-04-22T04:25:18.158Z,22.22
2023-04-22T04:30:21.310Z,22.25
2023-04-22T04:35:23.619Z,22.26
2023-04-22T04:40:25.003Z,22.25
2023-04-22T04:45:26.408Z,22.25
2023-04-22T04:50:27.913Z,22.28
2023-04-22T04:55:29.332Z,22.29
2023-04-22T05:00:30.735Z,22.29
2023-04-22T05:05:32.106Z,22.32
2023-04-22T05:10:33.518Z,22.30
2023-04-22T05:15:34.908Z,22.26
2023-04-22T05:20:36.444Z,22.29
2023-04-22T05:25:37.907Z,22.26
2023-04-22T05:30:39.295Z,22.29
2023-04-22T05:35:40.666Z,22.25
2023-04-22T05:40:42.067Z,22.24
2023-04-22T05:45:43.654Z,22.28
2023-04-22T05:50:45.049Z,22.28
2023-04-22T05:55:46.465Z,22.29
2023-04-22T06:00:47.891Z,22.30
2023-04-22T06:05:49.310Z,22.30
2023-04-22T06:10:50.755Z,22.31
2023-04-22T06:15:52.231Z,22.27
2023-04-22T06:20:53.647Z,22.31
2023-04-22T06:25:55.100Z,22.35
2023-04-22T06:30:56.531Z,22.31
2023-04-22T06:35:58.566Z,22.33
2023-04-22T06:41:00.118Z,22.34
2023-04-22T06:46:01.508Z,22.27
2023-04-22T06:51:02.929Z,22.32
2023-04-22T06:56:05.296Z,22.30
2023-04-22T07:01:06.705Z,22.35
2023-04-22T07:06:08.575Z,22.38
2023-04-22T07:11:11.836Z,22.35
2023-04-22T07:16:14.568Z,22.35
2023-04-22T07:21:16.193Z,22.34
2023-04-22T07:26:17.639Z,22.35
2023-04-22T07:31:19.092Z,22.35
2023-04-22T07:36:20.570Z,22.36
2023-04-22T07:41:21.966Z,22.35
2023-04-22T07:46:23.625Z,22.35
2023-04-22T07:51:25.837Z,22.35
2023-04-22T07:56:27.273Z,22.35
2023-04-22T08:01:28.693Z,22.29
2023-04-22T08:06:30.675Z,22.35
2023-04-22T08:11:32.120Z,22.32
2023-04-22T08:16:33.486Z,22.24
2023-04-22T08:21:37.155Z,22.30
2023-04-22T08:26:39.790Z,22.37
2023-04-22T08:31:41.941Z,22.37
2023-04-22T08:36:43.444Z,22.37
2023-04-22T08:41:45.775Z,22.36
2023-04-22T08:46:49.048Z,22.36
2023-04-22T08:51:50.767Z,22.36
2023-04-22T08:56:52.180Z,22.38
2023-04-22T09:01:54.075Z,22.38
2023-04-22T09:06:56.304Z,22.36
2023-04-22T09:11:58.309Z,22.38
2023-04-22T09:16:59.705Z,22.36
2023-04-22T09:22:01.098Z,22.41
2023-04-22T09:27:03.463Z,22.35
2023-04-22T09:32:11.729Z,22.37
2023-04-22T09:37:13.153Z,22.35
2023-04-22T09:42:14.539Z,22.34
2023-04-22T09:47:15.913Z,22.34
2023-04-22T09:52:27.938Z,22.31
2023-04-22T09:57:29.309Z,22.31
2023-04-22T10:02:30.882Z,22.33
2023-04-22T10:07:32.476Z,22.36
2023-04-22T10:12:37.325Z,22.33
2023-04-22T10:17:38.928Z,22.36
2023-04-22T10:22:41.685Z,22.40
2023-04-22T10:27:43.072Z,22.36
2023-04-22T10:32:44.482Z,22.34
2023-04-22T10:37:46.177Z,22.37
2023-04-22T10:42:50.095Z,22.36
2023-04-22T10:47:51.552Z,22.36
2023-04-22T10:52:57.392Z,22.36
2023-04-22T10:57:58.813Z,22.35
2023-04-22T11:03:08.052Z,22.38
2023-04-22T11:08:20.703Z,22.34
2023-04-22T11:13:22.189Z,22.39
2023-04-22T11:18:25.392Z,22.36
2023-04-22T11:23:27.552Z,22.38
2023-04-22T11:28:29.036Z,22.38
2023-04-22T11:33:31.666Z,22.36
2023-04-22T11:38:33.176Z,22.33
2023-04-22T11:43:34.601Z,22.35
2023-04-22T11:48:35.989Z,22.38
2023-04-22T11:53:38.596Z,22.37
2023-04-22T11:58:41.403Z,22.37
2023-04-22T12:03:43.101Z,22.37
2023-04-22T12:08:46.522Z,22.36
2023-04-22T12:13:50.454Z,22.38
2023-04-22T12:18:54.913Z,22.35
2023-04-22T12:23:59.077Z,22.38
2023-04-22T12:29:00.525Z,22.38
2023-04-22T12:34:02.665Z,22.36
2023-04-22T12:39:04.679Z,22.34
2023-04-22T12:44:06.079Z,22.36
2023-04-22T12:49:07.465Z,22.36
2023-04-22T12:54:08.905Z,22.36
2023-04-22T12:59:10.290Z,22.38
2023-04-22T13:04:12.051Z,22.39
2023-04-22T13:09:13.546Z,22.37
2023-04-22T13:14:15.261Z,22.36
2023-04-22T13:19:16.639Z,22.35
2023-04-22T13:24:18.026Z,22.37
2023-04-22T13:29:19.391Z,22.34
2023-04-22T13:34:20.810Z,22.35
2023-04-22T13:39:23.271Z,22.35
2023-04-22T13:44:24.733Z,22.37
2023-04-22T13:49:26.911Z,22.32
2023-04-22T13:54:28.303Z,22.38
2023-04-22T13:59:30.926Z,22.37
2023-04-22T14:04:33.089Z,22.35
2023-04-22T14:09:34.676Z,22.36
2023-04-22T14:14:36.224Z,22.33
2023-04-22T14:19:39.650Z,22.37
2023-04-22T14:24:41.219Z,22.37
2023-04-22T14:29:43.820Z,22.33
2023-04-22T14:34:45.976Z,22.36
2023-04-22T14:39:47.365Z,22.34
2023-04-22T14:44:48.789Z,22.35
2023-04-22T14:49:50.542Z,22.34
2023-04-22T14:54:52.156Z,22.34
2023-04-22T14:59:53.620Z,22.32
2023-04-22T15:04:55.025Z,22.30
2023-04-22T15:09:58.459Z,22.29
2023-04-22T15:14:59.869Z,22.32
2023-04-22T15:20:04.708Z,22.31
2023-04-22T15:25:07.709Z,22.26
2023-04-22T15:30:10.808Z,22.25
2023-04-22T15:35:12.218Z,22.25
2023-04-22T15:40:13.588Z,22.24
2023-04-22T15:45:14.979Z,22.26
2023-04-22T15:50:16.957Z,22.26
2023-04-22T15:55:18.357Z,22.25
2023-04-22T16:00:19.805Z,22.21
2023-04-22T16:05:22.740Z,22.36
2023-04-22T16:10:26.150Z,22.35
2023-04-22T16:15:27.704Z,22.30
2023-04-22T16:20:29.510Z,22.23
2023-04-22T16:25:30.953Z,22.27
2023-04-22T16:30:32.396Z,22.25
2023-04-22T16:35:33.941Z,22.17
2023-04-22T16:40:36.656Z,22.21
2023-04-22T16:45:38.055Z,22.17
2023-04-22T16:50:39.454Z,22.16
2023-04-22T16:55:41.276Z,22.16
2023-04-22T17:00:42.653Z,22.15
2023-04-22T17:05:44.060Z,22.08
2023-04-22T17:10:45.964Z,22.05
2023-04-22T17:15:47.403Z,21.97
2023-04-22T17:20:49.098Z,21.98
2023-04-22T17:25:50.566Z,21.92
2023-04-22T17:30:51.944Z,21.91
2023-04-22T17:35:53.329Z,21.89
2023-04-22T17:40:54.728Z,21.91
2023-04-22T17:45:56.197Z,21.83
2023-04-22T17:51:01.229Z,21.83
2023-04-22T17:56:02.636Z,21.76
2023-04-22T18:01:05.906Z,21.72
2023-04-22T18:06:07.443Z,21.77
2023-04-22T18:11:08.827Z,21.73
2023-04-22T18:16:10.221Z,21.76
2023-04-22T18:21:11.595Z,21.70
2023-04-22T18:26:12.990Z,21.64
2023-04-22T18:31:14.404Z,21.65
2023-04-22T18:36:15.821Z,21.62
2023-04-22T18:41:17.231Z,21.61
2023-04-22T18:46:18.634Z,21.62
2023-04-22T18:51:20.007Z,21.57
2023-04-22T18:56:21.465Z,21.56
2023-04-22T19:01:22.902Z,21.64
2023-04-22T19:06:24.362Z,21.59
2023-04-22T19:11:26.470Z,21.61
2023-04-22T19:16:28.295Z,21.56
2023-04-22T19:21:29.911Z,21.54
2023-04-22T19:26:32.125Z,21.55
2023-04-22T19:31:33.569Z,21.54
2023-04-22T19:36:35.002Z,21.54
2023-04-22T19:41:37.929Z,21.57
2023-04-22T19:46:39.490Z,21.60
2023-04-22T19:51:41.653Z,21.62
2023-04-22T19:56:43.264Z,21.59
2023-04-22T20:01:44.938Z,21.59
2023-04-22T20:06:46.397Z,21.62
2023-04-22T20:11:47.919Z,21.60
2023-04-22T20:16:49.816Z,21.60
2023-04-22T20:21:51.281Z,21.59
2023-04-22T20:26:52.670Z,21.61
2023-04-22T20:31:55.555Z,21.62
2023-04-22T20:36:57.056Z,21.61
2023-04-22T20:41:58.464Z,21.59
2023-04-22T20:46:59.902Z,21.58
2023-04-22T20:52:01.573Z,21.62
2023-04-22T20:57:04.675Z,21.60
2023-04-22T21:02:06.590Z,21.60
2023-04-22T21:07:11.644Z,21.54
2023-04-22T21:12:14.746Z,21.58
2023-04-22T21:17:20.684Z,21.58
2023-04-22T21:22:22.010Z,21.52
2023-04-22T21:27:23.586Z,21.53
2023-04-22T21:32:25.675Z,21.53
2023-04-22T21:37:27.103Z,21.54
2023-04-22T21:42:28.476Z,21.53
2023-04-22T21:47:30.095Z,21.53
2023-04-22T21:52:31.563Z,21.56
2023-04-22T21:57:32.943Z,21.54
2023-04-22T22:02:34.360Z,21.53
2023-04-22T22:07:38.432Z,21.52
2023-04-22T22:12:39.829Z,21.53
2023-04-22T22:17:41.247Z,21.52
2023-04-22T22:22:43.056Z,21.47
2023-04-22T22:27:48.743Z,21.50
2023-04-22T22:32:50.352Z,21.54
2023-04-22T22:37:51.766Z,21.48
2023-04-22T22:42:53.142Z,21.48
2023-04-22T22:47:54.599Z,21.48
2023-04-22T22:52:56.055Z,21.46
2023-04-22T22:57:57.504Z,21.44
2023-04-22T23:02:59.366Z,21.42
2023-04-22T23:08:00.880Z,21.43
2023-04-22T23:13:02.262Z,21.41
2023-04-22T23:18:03.709Z,21.43
2023-04-22T23:23:05.107Z,21.39
2023-04-22T23:28:06.754Z,21.41
2023-04-22T23:33:08.147Z,21.43
2023-04-22T23:38:10.359Z,21.40
2023-04-22T23:43:11.774Z,21.38
2023-04-22T23:48:13.158Z,21.40
2023-04-22T23:53:14.622Z,21.39
2023-04-22T23:58:16.066Z,21.38
